Time;durP1;ratioP1;P1;durP2;ratioP2;P2;SDS_P1;SDS_P2;PMS_P1;PMS_P2;Temp;Humidity;BMP_temperature;BMP_pressure;BME280_temperature;BME280_humidity;BME280_pressure;Samples;Min_cycle;Max_cycle;Signal;HPM_P1;HPM_P2
2020/12/10 00:01:06;;;;;;;19.53;15.00;;;3.40;99.90;;;;;;5056482;28;20185;-61
2020/12/10 00:03:32;;;;;;;20.77;14.90;;;3.30;99.90;;;;;;5057553;28;20167;-61
2020/12/10 00:05:57;;;;;;;20.73;15.37;;;3.30;99.90;;;;;;5039171;28;20740;-55
2020/12/10 00:08:23;;;;;;;18.13;14.10;;;3.30;99.90;;;;;;5037681;28;20249;-55
2020/12/10 00:10:49;;;;;;;43.93;17.57;;;3.30;99.90;;;;;;5052727;28;20187;-59
2020/12/10 00:13:14;;;;;;;23.40;16.27;;;3.30;99.90;;;;;;5056478;28;20250;-62
2020/12/10 00:15:40;;;;;;;21.00;15.80;;;3.20;99.90;;;;;;5042975;28;20196;-54
2020/12/10 00:18:05;;;;;;;33.97;17.20;;;3.30;99.90;;;;;;5038947;28;20253;-54
2020/12/10 00:20:31;;;;;;;21.37;15.50;;;3.30;99.90;;;;;;5038759;28;20200;-57
2020/12/10 00:22:56;;;;;;;24.57;16.70;;;3.40;99.90;;;;;;5036220;28;20184;-54
2020/12/10 00:25:22;;;;;;;20.30;14.63;;;3.40;99.90;;;;;;5039996;28;20191;-55
2020/12/10 00:27:47;;;;;;;22.47;15.20;;;3.50;99.90;;;;;;5057274;28;20195;-61
2020/12/10 00:30:13;;;;;;;27.40;16.07;;;3.50;99.90;;;;;;5055388;28;20669;-58
2020/12/10 00:32:39;;;;;;;19.33;14.30;;;3.50;99.90;;;;;;5055874;28;20634;-60
2020/12/10 00:35:06;;;;;;;27.40;16.50;;;3.60;99.90;;;;;;5056628;28;20207;-53
2020/12/10 00:37:33;;;;;;;22.43;16.33;;;3.70;99.90;;;;;;5037780;28;20192;-53
2020/12/10 00:39:59;;;;;;;28.30;17.20;;;3.60;99.90;;;;;;5036976;28;20203;-59
2020/12/10 00:42:24;;;;;;;29.43;17.23;;;3.50;99.90;;;;;;5054781;28;20229;-59
2020/12/10 00:44:50;;;;;;;23.63;16.43;;;3.50;99.90;;;;;;5056238;28;20171;-54
2020/12/10 00:47:17;;;;;;;23.37;16.73;;;3.50;99.90;;;;;;5039770;28;20204;-61
2020/12/10 00:49:43;;;;;;;27.07;18.73;;;3.50;99.90;;;;;;5036013;28;20206;-61
2020/12/10 00:52:09;;;;;;;22.13;16.40;;;3.50;99.90;;;;;;5049196;28;20183;-58
2020/12/10 00:54:35;;;;;;;30.97;18.77;;;3.50;99.90;;;;;;5056149;28;20209;-53
2020/12/10 00:57:00;;;;;;;32.00;19.80;;;3.70;99.90;;;;;;5043255;28;20722;-58
2020/12/10 00:59:26;;;;;;;21.43;15.73;;;3.50;99.90;;;;;;5036458;28;20286;-55
2020/12/10 01:01:51;;;;;;;22.17;15.67;;;3.50;99.90;;;;;;5047589;28;20254;-61
2020/12/10 01:04:17;;;;;;;23.47;15.90;;;3.60;99.90;;;;;;5043003;28;20184;-62
2020/12/10 01:06:42;;;;;;;27.53;18.43;;;3.50;99.90;;;;;;5036629;28;20327;-57
2020/12/10 01:09:09;;;;;;;20.37;14.53;;;3.60;99.90;;;;;;5035768;28;20176;-59
2020/12/10 01:11:35;;;;;;;18.47;14.00;;;3.60;99.90;;;;;;5044132;28;20190;-59
2020/12/10 01:14:01;;;;;;;18.57;13.97;;;3.60;99.90;;;;;;5055309;28;20182;-54
2020/12/10 01:16:27;;;;;;;19.17;14.13;;;3.80;99.90;;;;;;5048822;28;20182;-61
2020/12/10 01:18:52;;;;;;;19.50;14.07;;;3.90;99.90;;;;;;5035593;28;20251;-61
2020/12/10 01:21:31;;;;;;;17.67;13.77;;;4.00;99.90;;;;;;5036521;28;20182;-61
2020/12/10 01:23:58;;;;;;;19.37;13.37;;;4.00;99.90;;;;;;5035327;28;20182;-52
2020/12/10 01:26:29;;;;;;;20.53;14.17;;;4.00;99.90;;;;;;5040628;28;20175;-53
2020/12/10 01:28:55;;;;;;;21.07;15.07;;;4.00;99.90;;;;;;5055827;28;20547;-54
2020/12/10 01:31:21;;;;;;;18.63;13.70;;;4.10;99.90;;;;;;5051079;28;20210;-55
2020/12/10 01:33:47;;;;;;;18.17;13.17;;;4.00;99.90;;;;;;5036108;28;20172;-60
2020/12/10 01:36:20;;;;;;;20.50;15.10;;;4.10;99.90;;;;;;5036905;28;20183;-60
2020/12/10 01:38:46;;;;;;;16.17;12.50;;;4.20;99.90;;;;;;5054324;28;20193;-54
2020/12/10 01:41:11;;;;;;;17.90;12.60;;;4.20;99.90;;;;;;5053912;28;20598;-60
2020/12/10 01:43:37;;;;;;;17.13;12.87;;;4.30;99.90;;;;;;5035410;28;20174;-54
2020/12/10 01:46:03;;;;;;;17.37;12.67;;;4.30;99.90;;;;;;5035416;28;20504;-60
2020/12/10 01:48:30;;;;;;;18.90;14.27;;;4.30;99.90;;;;;;5036564;28;20551;-61
2020/12/10 01:50:55;;;;;;;16.77;11.90;;;4.10;99.90;;;;;;5035467;28;20624;-56
2020/12/10 01:53:21;;;;;;;15.87;11.17;;;4.10;99.90;;;;;;5053437;28;20271;-61
2020/12/10 01:55:47;;;;;;;16.67;12.37;;;4.20;99.90;;;;;;5054337;28;20182;-55
2020/12/10 01:58:12;;;;;;;16.03;12.47;;;4.30;99.90;;;;;;5038162;28;20196;-54
2020/12/10 02:00:38;;;;;;;17.13;12.80;;;4.30;99.90;;;;;;5035221;28;20203;-60
2020/12/10 02:03:03;;;;;;;21.27;14.53;;;4.30;99.90;;;;;;5049164;28;20175;-55
2020/12/10 02:05:29;;;;;;;19.20;14.13;;;4.30;99.90;;;;;;5055236;28;20507;-52
2020/12/10 02:07:54;;;;;;;15.77;12.13;;;4.20;99.90;;;;;;5041172;28;20548;-56
2020/12/10 02:10:20;;;;;;;15.27;11.20;;;4.20;99.90;;;;;;5035615;28;20226;-54
2020/12/10 02:12:45;;;;;;;16.30;11.90;;;4.20;99.90;;;;;;5047859;28;20216;-52
2020/12/10 02:15:11;;;;;;;15.13;11.03;;;4.30;99.90;;;;;;5056542;28;20179;-55
2020/12/10 02:17:37;;;;;;;14.57;11.63;;;4.30;99.90;;;;;;5041201;28;20214;-61
2020/12/10 02:20:04;;;;;;;14.00;11.10;;;4.30;99.90;;;;;;5033975;28;20211;-62
2020/12/10 02:22:30;;;;;;;15.57;11.07;;;4.40;99.90;;;;;;5045656;28;20194;-54
2020/12/10 02:24:56;;;;;;;15.47;11.10;;;4.50;99.90;;;;;;5053365;28;20191;-58
2020/12/10 02:27:21;;;;;;;15.87;11.87;;;4.50;99.90;;;;;;5054567;28;20222;-53
2020/12/10 02:29:47;;;;;;;16.53;12.40;;;4.50;99.90;;;;;;5054496;28;20179;-58
2020/12/10 02:32:12;;;;;;;16.60;12.53;;;4.50;99.90;;;;;;5053369;28;20187;-54
2020/12/10 02:34:38;;;;;;;14.70;11.00;;;4.50;99.90;;;;;;5053643;28;20179;-58
2020/12/10 02:37:03;;;;;;;17.03;13.17;;;4.40;99.90;;;;;;5035157;28;20207;-54
2020/12/10 02:39:29;;;;;;;15.60;10.40;;;4.20;99.90;;;;;;5034959;28;20212;-53
2020/12/10 02:41:54;;;;;;;14.97;11.40;;;4.20;99.90;;;;;;5035362;28;20180;-62
2020/12/10 02:44:20;;;;;;;16.03;11.37;;;4.30;99.90;;;;;;5035521;28;20207;-53
2020/12/10 02:46:45;;;;;;;17.03;12.37;;;4.20;99.90;;;;;;5049099;28;20547;-53
2020/12/10 02:49:11;;;;;;;14.50;11.13;;;4.20;99.90;;;;;;5054513;28;20221;-53
2020/12/10 02:51:36;;;;;;;15.33;11.10;;;4.00;99.90;;;;;;5040702;28;20183;-57
2020/12/10 02:54:02;;;;;;;14.70;11.40;;;4.00;99.90;;;;;;5034958;28;20249;-60
2020/12/10 02:56:28;;;;;;;16.30;11.80;;;4.10;99.90;;;;;;5045633;28;20186;-60
2020/12/10 02:58:53;;;;;;;15.43;12.10;;;4.20;99.90;;;;;;5054926;28;20190;-59
2020/12/10 03:01:19;;;;;;;14.53;10.43;;;4.20;99.90;;;;;;5044763;28;20183;-59
2020/12/10 03:03:45;;;;;;;14.53;10.73;;;4.20;99.90;;;;;;5033559;28;20520;-61
2020/12/10 03:06:11;;;;;;;15.03;10.50;;;4.10;99.90;;;;;;5041991;28;20183;-57
2020/12/10 03:08:37;;;;;;;16.27;11.93;;;4.10;99.90;;;;;;5054569;28;20190;-53
2020/12/10 03:11:04;;;;;;;13.50;10.50;;;4.00;99.90;;;;;;5046769;28;20238;-61
2020/12/10 03:13:30;;;;;;;13.97;10.97;;;4.10;99.90;;;;;;5033670;28;20266;-56
2020/12/10 03:15:55;;;;;;;15.53;11.20;;;4.10;99.90;;;;;;5034734;28;20258;-53
2020/12/10 03:18:21;;;;;;;14.70;10.70;;;4.10;99.90;;;;;;5033638;28;20191;-53
2020/12/10 03:20:46;;;;;;;17.23;10.77;;;4.10;99.90;;;;;;5037105;28;20203;-53
2020/12/10 03:23:12;;;;;;;14.33;11.30;;;4.20;99.90;;;;;;5054632;28;20229;-52
2020/12/10 03:25:37;;;;;;;13.87;9.97;;;4.20;99.90;;;;;;5052159;28;20216;-60
2020/12/10 03:28:03;;;;;;;14.47;10.53;;;4.20;99.90;;;;;;5033235;28;20310;-62
2020/12/10 03:30:29;;;;;;;14.13;10.57;;;4.20;99.90;;;;;;5034281;28;20172;-62
2020/12/10 03:32:54;;;;;;;14.03;10.80;;;4.10;99.90;;;;;;5053724;28;20187;-53
2020/12/10 03:35:20;;;;;;;14.93;10.90;;;4.10;99.90;;;;;;5052087;28;20642;-59
2020/12/10 03:37:45;;;;;;;14.00;10.17;;;4.10;99.90;;;;;;5053928;28;20191;-53
2020/12/10 03:40:11;;;;;;;14.07;10.87;;;4.20;99.90;;;;;;5042862;28;20241;-55
2020/12/10 03:42:37;;;;;;;14.83;10.37;;;4.30;99.90;;;;;;5033855;28;20168;-57
2020/12/10 03:45:04;;;;;;;14.57;10.87;;;4.40;99.90;;;;;;5038000;28;20639;-57
2020/12/10 03:47:29;;;;;;;15.90;11.00;;;4.40;99.90;;;;;;5054534;28;20278;-58
2020/12/10 03:49:55;;;;;;;15.60;11.40;;;4.50;99.90;;;;;;5046225;28;20587;-58
2020/12/10 03:52:20;;;;;;;19.43;11.27;;;4.50;99.90;;;;;;5035367;28;20176;-53
2020/12/10 03:54:46;;;;;;;15.83;10.60;;;4.60;99.90;;;;;;5025105;28;20265;-57
2020/12/10 03:57:11;;;;;;;14.30;10.10;;;4.60;99.90;;;;;;5057219;28;20229;-57
2020/12/10 03:59:37;;;;;;;14.53;10.17;;;4.70;99.90;;;;;;5053552;28;20203;-54
2020/12/10 04:02:03;;;;;;;12.63;9.37;;;4.70;99.90;;;;;;5037129;28;20611;-53
2020/12/10 04:04:28;;;;;;;14.13;10.63;;;4.70;99.90;;;;;;5054536;28;20183;-54
2020/12/10 04:06:54;;;;;;;13.70;9.97;;;4.80;99.90;;;;;;5056729;28;20203;-53
2020/12/10 04:09:19;;;;;;;12.60;9.67;;;4.80;99.90;;;;;;5041713;28;20192;-52
2020/12/10 04:11:45;;;;;;;12.70;9.97;;;4.80;99.90;;;;;;5037458;28;20197;-53
2020/12/10 04:14:11;;;;;;;13.83;9.87;;;4.80;99.90;;;;;;5049784;28;20190;-56
2020/12/10 04:16:36;;;;;;;13.87;11.10;;;4.80;99.90;;;;;;5044201;28;20550;-61
2020/12/10 04:19:03;;;;;;;14.67;10.87;;;4.70;99.90;;;;;;5056948;28;20179;-57
2020/12/10 04:21:28;;;;;;;12.83;10.40;;;4.70;99.90;;;;;;5053458;28;20262;-53
2020/12/10 04:23:54;;;;;;;13.30;10.03;;;4.70;99.90;;;;;;5037967;28;20649;-57
2020/12/10 04:26:20;;;;;;;13.63;9.97;;;4.70;99.90;;;;;;5038026;28;20187;-53
2020/12/10 04:28:46;;;;;;;12.50;9.97;;;4.70;99.90;;;;;;5057847;28;20198;-57
2020/12/10 04:31:12;;;;;;;10.10;8.50;;;4.80;99.90;;;;;;5056185;28;20507;-61
2020/12/10 04:33:37;;;;;;;12.00;9.67;;;4.80;99.90;;;;;;5056720;28;20179;-62
2020/12/10 04:36:04;;;;;;;12.87;10.30;;;4.80;99.90;;;;;;5056686;28;20496;-53
2020/12/10 04:38:30;;;;;;;11.27;8.77;;;4.80;99.90;;;;;;5039390;28;20206;-57
2020/12/10 04:40:59;;;;;;;12.67;9.30;;;4.70;99.90;;;;;;5036683;28;20246;-55
2020/12/10 04:43:27;;;;;;;12.20;9.33;;;4.60;99.90;;;;;;5053343;28;20175;-53
2020/12/10 04:46:00;;;;;;;10.30;8.73;;;4.50;99.90;;;;;;5055679;28;20254;-57
2020/12/10 04:48:35;;;;;;;10.20;8.60;;;4.50;99.90;;;;;;5039280;28;20652;-57
2020/12/10 04:51:04;;;;;;;11.27;8.80;;;4.50;99.90;;;;;;5036449;28;20179;-61
2020/12/10 04:53:30;;;;;;;10.57;8.53;;;4.40;99.90;;;;;;5054195;28;20187;-60
2020/12/10 04:56:04;;;;;;;10.53;9.10;;;4.40;99.90;;;;;;5055496;28;20229;-55
2020/12/10 04:58:30;;;;;;;9.77;8.17;;;4.50;99.90;;;;;;5040375;28;20208;-56
2020/12/10 05:01:00;;;;;;;10.77;8.43;;;4.40;99.90;;;;;;5057199;28;20276;-57
2020/12/10 05:03:26;;;;;;;10.20;8.50;;;4.40;99.90;;;;;;5046716;28;20209;-60
2020/12/10 05:05:52;;;;;;;10.50;8.37;;;4.40;99.90;;;;;;5065297;28;20639;-61
2020/12/10 05:08:30;;;;;;;9.63;8.17;;;4.40;99.90;;;;;;5050502;28;20207;-57
2020/12/10 05:10:57;;;;;;;10.73;8.30;;;4.40;99.90;;;;;;5056528;28;20585;-58
2020/12/10 05:13:23;;;;;;;10.53;7.83;;;4.40;99.90;;;;;;5069062;28;20545;-52
2020/12/10 05:15:49;;;;;;;11.13;8.80;;;4.50;99.90;;;;;;5060363;28;20639;-60
2020/12/10 05:18:16;;;;;;;13.37;8.43;;;4.40;99.90;;;;;;5037235;28;20204;-53
2020/12/10 05:20:51;;;;;;;13.83;8.47;;;4.30;99.90;;;;;;5042986;28;20206;-53
2020/12/10 05:23:33;;;;;;;7.83;6.70;;;4.30;99.90;;;;;;5067801;28;20216;-57
2020/12/10 05:26:02;;;;;;;6.83;5.93;;;4.20;99.90;;;;;;5061138;28;20175;-60
2020/12/10 05:28:39;;;;;;;6.67;5.93;;;4.20;99.90;;;;;;5059956;28;20195;-53
2020/12/10 05:31:07;;;;;;;60.63;9.03;;;4.20;99.90;;;;;;5068255;28;20187;-53
2020/12/10 05:33:33;;;;;;;5.93;5.33;;;4.20;99.90;;;;;;5022616;28;20653;-54
2020/12/10 05:36:12;;;;;;;5.87;5.27;;;4.10;99.90;;;;;;5051361;28;20175;-60
2020/12/10 05:39:03;;;;;;;6.43;5.73;;;4.10;99.90;;;;;;5034710;28;20247;-59
2020/12/10 05:41:28;;;;;;;5.87;4.90;;;4.10;99.90;;;;;;5036137;28;20203;-62
2020/12/10 05:43:54;;;;;;;6.27;5.67;;;4.10;99.90;;;;;;5035694;28;20218;-56
2020/12/10 05:46:24;;;;;;;5.57;5.07;;;4.20;99.90;;;;;;5034656;28;20180;-54
2020/12/10 05:48:51;;;;;;;5.20;4.70;;;4.20;99.90;;;;;;5035756;28;20180;-53
2020/12/10 05:51:19;;;;;;;5.27;4.77;;;4.30;99.90;;;;;;5054746;28;20266;-62
2020/12/10 05:53:46;;;;;;;5.20;4.70;;;4.40;99.90;;;;;;5055145;28;20254;-59
2020/12/10 05:56:13;;;;;;;10.33;5.33;;;4.40;99.90;;;;;;5053915;28;20183;-55
2020/12/10 05:58:46;;;;;;;12.47;5.40;;;4.40;99.90;;;;;;5055263;28;20179;-58
2020/12/10 06:01:24;;;;;;;4.73;4.23;;;4.40;99.90;;;;;;5037193;28;20543;-62
2020/12/10 06:03:49;;;;;;;6.00;5.10;;;4.40;99.90;;;;;;5035399;28;20301;-59
2020/12/10 06:06:19;;;;;;;5.23;4.73;;;4.50;99.90;;;;;;5052990;28;20262;-54
2020/12/10 06:08:45;;;;;;;7.97;5.13;;;4.50;99.90;;;;;;5055390;28;20166;-60
2020/12/10 06:11:17;;;;;;;5.10;4.60;;;4.50;99.90;;;;;;5037781;28;20195;-60
2020/12/10 06:13:42;;;;;;;8.30;6.03;;;4.40;99.90;;;;;;5036274;28;20172;-60
2020/12/10 06:16:15;;;;;;;6.20;5.60;;;4.20;99.90;;;;;;5035039;28;20497;-53
2020/12/10 06:19:02;;;;;;;10.60;6.50;;;4.00;99.90;;;;;;5051365;28;20626;-54
2020/12/10 06:21:37;;;;;;;6.33;5.30;;;4.00;99.90;;;;;;5055672;28;20163;-57
2020/12/10 06:24:25;;;;;;;8.03;6.13;;;4.10;99.90;;;;;;5035417;28;20250;-54
2020/12/10 06:26:51;;;;;;;5.70;5.10;;;4.20;99.90;;;;;;5034220;28;20195;-57
2020/12/10 06:29:27;;;;;;;6.53;5.50;;;4.20;99.90;;;;;;5053866;28;20214;-54
2020/12/10 06:32:19;;;;;;;6.60;5.80;;;4.30;99.90;;;;;;5054479;28;20170;-59
2020/12/10 06:34:54;;;;;;;7.10;6.03;;;4.30;99.90;;;;;;5051005;28;20504;-53
2020/12/10 06:37:28;;;;;;;6.20;5.60;;;4.40;99.90;;;;;;5040164;28;20195;-53
2020/12/10 06:40:03;;;;;;;6.00;5.03;;;4.40;99.90;;;;;;5053234;28;20199;-55
2020/12/10 06:42:48;;;;;;;5.97;5.27;;;4.40;99.90;;;;;;5038315;28;20198;-56
2020/12/10 06:45:34;;;;;;;6.17;5.47;;;4.50;99.90;;;;;;5041172;28;20183;-55
2020/12/10 06:48:01;;;;;;;5.33;4.83;;;4.60;99.90;;;;;;5046500;28;20202;-58
2020/12/10 06:50:30;;;;;;;5.57;5.07;;;4.60;99.90;;;;;;5044195;28;20187;-55
2020/12/10 06:53:07;;;;;;;5.30;4.80;;;4.60;99.90;;;;;;5036167;28;20183;-52
2020/12/10 06:55:33;;;;;;;4.60;4.20;;;4.70;99.90;;;;;;5039924;28;20623;-59
2020/12/10 06:58:09;;;;;;;4.43;4.03;;;4.70;99.90;;;;;;5053583;28;20686;-61
2020/12/10 07:00:52;;;;;;;5.07;4.57;;;4.80;99.90;;;;;;5054067;28;20240;-61
2020/12/10 07:03:25;;;;;;;4.77;4.37;;;4.80;99.90;;;;;;5051398;28;20238;-57
2020/12/10 07:05:50;;;;;;;4.87;4.33;;;4.70;99.90;;;;;;5047455;28;20218;-55
2020/12/10 07:08:18;;;;;;;7.93;6.90;;;4.70;99.90;;;;;;5039379;28;20200;-60
2020/12/10 07:10:45;;;;;;;7.20;6.23;;;4.60;99.90;;;;;;5034920;28;20187;-62
2020/12/10 07:13:14;;;;;;;7.03;5.60;;;4.50;99.90;;;;;;5054435;28;20191;-54
2020/12/10 07:15:40;;;;;;;5.80;5.20;;;4.50;99.90;;;;;;5050147;28;20659;-56
2020/12/10 07:18:06;;;;;;;6.33;5.30;;;4.60;99.90;;;;;;5036432;28;20203;-52
2020/12/10 07:20:33;;;;;;;6.93;5.40;;;4.70;99.90;;;;;;5046453;28;20260;-55
2020/12/10 07:22:59;;;;;;;7.80;6.50;;;4.80;99.90;;;;;;5054730;28;20642;-56
2020/12/10 07:25:26;;;;;;;7.77;6.50;;;4.90;99.90;;;;;;5043558;28;20196;-53
2020/12/10 07:27:51;;;;;;;7.60;6.60;;;5.00;99.90;;;;;;5041786;28;20261;-57
2020/12/10 07:30:18;;;;;;;7.30;6.03;;;5.00;99.90;;;;;;5047065;28;20539;-61
2020/12/10 07:32:44;;;;;;;10.53;7.43;;;5.00;99.90;;;;;;5047722;28;20172;-57
2020/12/10 07:35:11;;;;;;;11.57;8.37;;;5.00;99.90;;;;;;5050751;28;20246;-52
2020/12/10 07:37:37;;;;;;;9.27;7.87;;;5.10;99.90;;;;;;5057022;28;20195;-55
2020/12/10 07:40:14;;;;;;;9.83;7.80;;;5.20;99.90;;;;;;5049442;28;20211;-53
2020/12/10 07:42:40;;;;;;;7.70;6.63;;;5.20;99.90;;;;;;5052724;28;20239;-52
2020/12/10 07:45:15;;;;;;;7.23;5.80;;;5.20;99.90;;;;;;5069662;28;20171;-61
2020/12/10 07:47:42;;;;;;;6.07;5.47;;;5.20;99.90;;;;;;5026125;28;20289;-62
2020/12/10 07:50:22;;;;;;;5.40;4.90;;;5.20;99.90;;;;;;5056905;28;20203;-58
2020/12/10 07:52:51;;;;;;;4.80;4.27;;;5.20;99.90;;;;;;5059350;28;20595;-53
2020/12/10 07:55:21;;;;;;;5.00;4.50;;;5.30;99.90;;;;;;5054557;28;20186;-55
2020/12/10 07:57:58;;;;;;;5.10;4.60;;;5.20;99.90;;;;;;5048146;28;20215;-54
2020/12/10 08:00:27;;;;;;;5.20;4.70;;;5.20;99.90;;;;;;5050180;28;20370;-53
2020/12/10 08:03:08;;;;;;;5.43;4.63;;;5.10;99.90;;;;;;5055764;28;20199;-58
2020/12/10 08:05:35;;;;;;;5.70;4.53;;;5.10;99.90;;;;;;5056310;28;20158;-57
2020/12/10 08:08:01;;;;;;;6.00;5.30;;;5.10;99.90;;;;;;5052968;28;20281;-54
2020/12/10 08:10:32;;;;;;;5.90;5.13;;;5.00;99.90;;;;;;5057663;28;20211;-55
2020/12/10 08:13:09;;;;;;;7.10;5.13;;;5.00;99.90;;;;;;5056735;28;20492;-50
2020/12/10 08:15:34;;;;;;;5.37;4.87;;;4.80;99.90;;;;;;5056991;28;20163;-52
2020/12/10 08:18:08;;;;;;;5.00;4.50;;;4.70;99.90;;;;;;5056579;28;20248;-55
2020/12/10 08:20:44;;;;;;;7.13;5.33;;;4.80;99.90;;;;;;5055723;28;20221;-52
2020/12/10 08:23:11;;;;;;;5.90;5.17;;;4.80;99.90;;;;;;5052968;28;20195;-54
2020/12/10 08:25:37;;;;;;;6.97;5.67;;;4.60;99.90;;;;;;5042743;28;20172;-53
2020/12/10 08:28:09;;;;;;;7.20;5.23;;;4.60;99.90;;;;;;5044715;28;20619;-54
2020/12/10 08:30:36;;;;;;;6.97;5.73;;;4.70;99.90;;;;;;5051846;28;20240;-57
2020/12/10 08:33:03;;;;;;;7.30;5.07;;;4.80;99.90;;;;;;5045345;28;20194;-54
2020/12/10 08:35:40;;;;;;;7.17;5.60;;;4.90;99.90;;;;;;5046568;28;20207;-57
2020/12/10 08:38:05;;;;;;;6.67;5.23;;;5.00;99.90;;;;;;5047053;28;20202;-52
2020/12/10 08:40:31;;;;;;;5.53;4.93;;;5.10;99.90;;;;;;5037153;28;20563;-56
2020/12/10 08:43:11;;;;;;;6.23;5.40;;;5.20;99.90;;;;;;5036668;28;20256;-51
2020/12/10 08:45:44;;;;;;;6.03;5.00;;;5.30;99.90;;;;;;5040757;28;20194;-55
2020/12/10 08:48:11;;;;;;;5.43;4.83;;;5.30;99.90;;;;;;5055163;28;20199;-58
2020/12/10 08:50:47;;;;;;;5.87;4.93;;;5.30;99.90;;;;;;5054347;28;20172;-56
2020/12/10 08:53:13;;;;;;;5.70;5.10;;;5.40;99.90;;;;;;5054530;28;20262;-55
2020/12/10 08:55:48;;;;;;;11.13;6.00;;;5.40;99.90;;;;;;5054291;28;20599;-60
2020/12/10 08:58:18;;;;;;;23.00;7.40;;;5.40;99.90;;;;;;5055622;28;20264;-54
2020/12/10 09:00:47;;;;;;;6.57;5.43;;;5.20;99.90;;;;;;5056184;28;20642;-60
2020/12/10 09:03:12;;;;;;;6.20;5.37;;;5.30;99.90;;;;;;5043907;28;20172;-58
2020/12/10 09:05:38;;;;;;;5.17;4.67;;;5.30;99.90;;;;;;5036174;28;20179;-60
2020/12/10 09:08:03;;;;;;;5.87;5.23;;;5.40;99.90;;;;;;5035685;28;20199;-52
2020/12/10 09:10:30;;;;;;;5.83;5.10;;;5.50;99.90;;;;;;5035822;28;20180;-54
2020/12/10 09:12:57;;;;;;;6.30;5.40;;;5.60;99.90;;;;;;5035899;28;20230;-55
2020/12/10 09:15:23;;;;;;;5.67;4.70;;;5.60;99.90;;;;;;5035705;28;20214;-53
2020/12/10 09:17:48;;;;;;;5.37;4.87;;;5.70;99.90;;;;;;5035934;28;20227;-59
2020/12/10 09:20:14;;;;;;;5.57;4.83;;;5.70;99.90;;;;;;5035679;28;20242;-51
2020/12/10 09:22:39;;;;;;;6.83;5.50;;;5.80;99.90;;;;;;5035246;28;20180;-54
2020/12/10 09:25:05;;;;;;;8.43;7.27;;;5.80;99.90;;;;;;5035185;28;20243;-58
2020/12/10 09:27:33;;;;;;;10.03;8.43;;;5.90;99.90;;;;;;5035187;28;20226;-55
2020/12/10 09:29:58;;;;;;;7.13;5.57;;;5.90;99.90;;;;;;5036745;28;20176;-53
2020/12/10 09:32:24;;;;;;;6.30;5.70;;;5.90;99.90;;;;;;5035040;28;20225;-58
2020/12/10 09:34:51;;;;;;;6.90;6.20;;;5.80;99.90;;;;;;5035017;28;20504;-56
2020/12/10 09:37:16;;;;;;;7.27;6.10;;;5.90;99.90;;;;;;5034707;28;20203;-55
2020/12/10 09:39:42;;;;;;;7.60;6.10;;;5.90;99.90;;;;;;5035386;28;20211;-55
2020/12/10 09:42:07;;;;;;;7.77;6.20;;;6.00;99.90;;;;;;5034937;28;20181;-53
2020/12/10 09:44:33;;;;;;;12.27;9.20;;;6.10;99.90;;;;;;5045781;28;20183;-64
2020/12/10 09:46:59;;;;;;;16.63;12.77;;;6.20;99.90;;;;;;5053880;28;20206;-58
2020/12/10 09:49:24;;;;;;;10.23;8.23;;;6.40;99.90;;;;;;5054780;28;20688;-58
2020/12/10 09:51:54;;;;;;;9.20;7.63;;;6.50;99.90;;;;;;5054113;28;20223;-54
2020/12/10 09:54:36;;;;;;;8.97;6.40;;;6.70;99.90;;;;;;5060774;28;20264;-60
2020/12/10 09:59:34;;;;;;;8.07;6.23;;;7.00;99.90;;;;;;5053391;28;20235;-53
2020/12/10 10:01:59;;;;;;;9.73;8.53;;;7.00;99.90;;;;;;5053917;28;20301;-57
2020/12/10 10:04:25;;;;;;;16.33;14.73;;;7.00;99.90;;;;;;5040498;28;20635;-57
2020/12/10 10:06:51;;;;;;;12.00;9.70;;;7.10;99.90;;;;;;5034402;28;20192;-51
2020/12/10 10:09:16;;;;;;;10.17;8.40;;;7.10;99.90;;;;;;5044563;28;20579;-57
2020/12/10 10:11:44;;;;;;;5.70;5.10;;;7.10;99.90;;;;;;5042648;28;20195;-62
2020/12/10 10:14:09;;;;;;;5.03;4.57;;;7.30;99.90;;;;;;5034437;28;20187;-62
2020/12/10 10:16:35;;;;;;;7.73;7.03;;;7.30;99.90;;;;;;5033792;28;20283;-60
2020/12/10 10:19:01;;;;;;;5.23;4.63;;;7.30;99.90;;;;;;5034291;28;20180;-57
2020/12/10 10:21:28;;;;;;;9.23;8.40;;;7.30;99.90;;;;;;5032948;28;20199;-60
2020/12/10 10:23:54;;;;;;;9.03;8.23;;;7.30;99.90;;;;;;5033630;28;20263;-61
2020/12/10 10:26:20;;;;;;;5.83;5.23;;;7.10;99.90;;;;;;5041184;28;20182;-56
2020/12/10 10:28:48;;;;;;;20.27;18.37;;;7.00;99.90;;;;;;5054119;28;20249;-58
2020/12/10 10:31:14;;;;;;;7.57;6.80;;;6.90;99.90;;;;;;5054795;28;20197;-60
2020/12/10 10:33:39;;;;;;;6.00;5.40;;;6.80;99.90;;;;;;5054341;28;20273;-53
2020/12/10 10:36:05;;;;;;;6.27;5.63;;;6.80;99.90;;;;;;5054610;28;20189;-59
2020/12/10 10:38:31;;;;;;;5.60;5.10;;;6.80;99.90;;;;;;5053496;28;20191;-53
2020/12/10 10:40:56;;;;;;;5.97;5.30;;;6.70;99.90;;;;;;5050184;28;20203;-61
2020/12/10 10:43:22;;;;;;;5.57;5.07;;;6.60;99.90;;;;;;5053563;28;20179;-60
2020/12/10 10:45:47;;;;;;;5.47;4.97;;;6.50;99.90;;;;;;5053825;28;20255;-56
2020/12/10 10:48:13;;;;;;;6.17;5.17;;;6.40;99.90;;;;;;5053785;28;20244;-53
2020/12/10 10:50:39;;;;;;;6.10;5.50;;;6.50;99.90;;;;;;5055215;28;20209;-53
2020/12/10 10:53:05;;;;;;;5.63;5.13;;;6.50;99.90;;;;;;5055549;28;20543;-62
2020/12/10 10:55:30;;;;;;;5.13;4.63;;;6.50;99.90;;;;;;5054484;28;20638;-51
2020/12/10 10:57:56;;;;;;;6.90;6.20;;;6.50;99.90;;;;;;5053563;28;20206;-59
2020/12/10 11:00:21;;;;;;;7.07;5.87;;;6.30;99.90;;;;;;5053488;28;20215;-54
2020/12/10 11:02:47;;;;;;;5.70;5.20;;;6.20;99.90;;;;;;5057461;28;20249;-61
2020/12/10 11:05:13;;;;;;;6.00;5.40;;;6.00;99.90;;;;;;5057417;28;20179;-60
2020/12/10 11:07:40;;;;;;;6.03;5.37;;;5.80;99.90;;;;;;5057945;28;20206;-52
2020/12/10 11:10:08;;;;;;;6.20;5.60;;;5.60;99.90;;;;;;5056600;28;20171;-59
2020/12/10 11:12:34;;;;;;;5.53;5.03;;;5.60;99.90;;;;;;5058065;28;20216;-58
2020/12/10 11:15:00;;;;;;;8.63;7.03;;;5.80;99.90;;;;;;5057764;28;20229;-61
2020/12/10 11:17:25;;;;;;;11.37;9.57;;;5.90;99.90;;;;;;5050373;28;20203;-60
2020/12/10 11:19:51;;;;;;;6.90;6.20;;;5.90;99.90;;;;;;5037284;28;20250;-54
2020/12/10 11:22:17;;;;;;;6.47;5.73;;;6.10;99.90;;;;;;5038941;28;20180;-60
2020/12/10 11:24:43;;;;;;;6.27;5.67;;;6.30;99.90;;;;;;5037228;28;20218;-59
2020/12/10 11:27:08;;;;;;;6.17;5.57;;;6.60;99.90;;;;;;5038020;28;20196;-52
2020/12/10 11:29:34;;;;;;;6.37;5.77;;;6.60;99.90;;;;;;5037811;28;20211;-59
2020/12/10 11:31:59;;;;;;;6.93;6.23;;;6.50;99.90;;;;;;5037352;28;20180;-58
2020/12/10 11:34:25;;;;;;;7.00;6.30;;;6.20;99.90;;;;;;5037745;28;20618;-55
2020/12/10 11:36:51;;;;;;;6.07;5.50;;;5.90;99.90;;;;;;5038108;28;20211;-62
2020/12/10 11:39:17;;;;;;;7.17;6.13;;;5.90;99.90;;;;;;5036881;28;20263;-61
2020/12/10 11:41:43;;;;;;;6.20;5.60;;;6.00;99.90;;;;;;5037729;28;20254;-56
2020/12/10 11:44:10;;;;;;;5.97;5.37;;;6.00;99.90;;;;;;5037725;28;20636;-54
2020/12/10 11:46:36;;;;;;;6.10;5.50;;;6.00;99.90;;;;;;5037794;28;20200;-54
2020/12/10 11:49:02;;;;;;;5.80;5.30;;;6.20;99.90;;;;;;5038418;28;20179;-56
2020/12/10 11:51:32;;;;;;;6.20;5.60;;;6.20;99.90;;;;;;5037838;28;20180;-53
2020/12/10 11:53:57;;;;;;;5.97;5.37;;;6.10;99.90;;;;;;5037421;28;20501;-57
2020/12/10 11:56:23;;;;;;;6.13;5.53;;;6.20;99.90;;;;;;5036566;28;20616;-61
2020/12/10 11:58:48;;;;;;;6.20;5.60;;;6.00;99.90;;;;;;5036853;28;20184;-56
2020/12/10 12:01:14;;;;;;;6.57;5.93;;;5.90;99.90;;;;;;5036707;28;20207;-53
2020/12/10 12:03:39;;;;;;;6.83;6.00;;;5.90;99.90;;;;;;5036975;28;20179;-56
2020/12/10 12:06:05;;;;;;;6.27;5.67;;;5.80;99.90;;;;;;5036556;28;20172;-52
2020/12/10 12:08:31;;;;;;;6.50;5.90;;;5.90;99.90;;;;;;5037457;28;20208;-60
2020/12/10 12:10:59;;;;;;;7.03;6.33;;;6.10;99.90;;;;;;5036833;28;20199;-55
2020/12/10 12:13:25;;;;;;;7.67;6.87;;;6.20;99.90;;;;;;5036264;28;20195;-52
2020/12/10 12:15:50;;;;;;;6.80;6.10;;;6.30;99.90;;;;;;5036781;28;20179;-59
2020/12/10 12:18:17;;;;;;;8.37;7.07;;;6.20;99.90;;;;;;5036726;28;20200;-59
2020/12/10 12:20:44;;;;;;;7.13;6.43;;;6.20;99.90;;;;;;5036544;28;20250;-59
2020/12/10 12:23:10;;;;;;;7.00;6.30;;;6.30;99.90;;;;;;5036964;28;20604;-59
2020/12/10 12:25:36;;;;;;;7.40;6.60;;;6.20;99.90;;;;;;5042297;28;20209;-56
2020/12/10 12:28:02;;;;;;;7.93;7.13;;;6.20;99.90;;;;;;5056321;28;20218;-60
2020/12/10 12:30:28;;;;;;;7.50;6.80;;;6.20;99.90;;;;;;5056616;28;20175;-56
2020/12/10 12:32:54;;;;;;;8.00;7.13;;;6.20;99.90;;;;;;5056152;28;20234;-59
2020/12/10 12:35:20;;;;;;;8.47;7.50;;;6.20;99.90;;;;;;5055975;28;20258;-56
2020/12/10 12:37:46;;;;;;;8.37;7.57;;;6.20;99.90;;;;;;5055934;28;20670;-58
2020/12/10 12:40:11;;;;;;;8.00;7.20;;;6.20;99.90;;;;;;5056453;28;20642;-55
2020/12/10 12:42:40;;;;;;;7.90;7.10;;;6.10;99.90;;;;;;5056004;28;20186;-54
2020/12/10 12:45:05;;;;;;;7.33;6.53;;;5.90;99.90;;;;;;5056259;28;20186;-59
2020/12/10 12:47:31;;;;;;;8.03;6.57;;;5.70;99.90;;;;;;5056120;28;20187;-57
2020/12/10 12:49:57;;;;;;;7.57;6.87;;;5.50;99.90;;;;;;5055852;28;20187;-58
2020/12/10 12:52:26;;;;;;;7.97;7.17;;;5.50;99.90;;;;;;5055709;28;20176;-59